createdAt,value
2017-10-30T00:00:49.771Z,13.73
2017-10-30T00:03:16.653Z,9.20
2017-10-30T00:05:43.587Z,17.40
2017-10-30T00:08:10.487Z,15.00
2017-10-30T00:10:38.172Z,11.30
2017-10-30T00:13:05.039Z,20.33
2017-10-30T00:15:31.980Z,33.33
2017-10-30T00:17:58.868Z,21.50
2017-10-30T00:20:25.739Z,19.08
2017-10-30T00:22:52.748Z,14.23
2017-10-30T00:25:19.624Z,11.50
2017-10-30T00:27:47.295Z,10.77
2017-10-30T00:30:14.263Z,17.42
2017-10-30T00:32:41.149Z,12.32
2017-10-30T00:35:08.084Z,12.80
2017-10-30T00:37:34.996Z,16.05
2017-10-30T00:40:02.005Z,11.90
2017-10-30T00:42:28.890Z,13.93
2017-10-30T00:44:55.821Z,14.30
2017-10-30T00:47:22.699Z,12.00
2017-10-30T00:49:49.636Z,11.00
2017-10-30T00:52:16.521Z,13.95
2017-10-30T00:54:43.470Z,12.75
2017-10-30T00:57:10.360Z,9.57
2017-10-30T00:59:37.484Z,13.73
2017-10-30T01:02:05.127Z,15.88
2017-10-30T01:04:32.021Z,12.70
2017-10-30T01:06:58.995Z,9.95
2017-10-30T01:09:25.886Z,13.90
2017-10-30T01:11:53.576Z,13.73
2017-10-30T01:14:20.523Z,15.75
2017-10-30T01:16:47.461Z,13.80
2017-10-30T01:19:15.146Z,16.50
2017-10-30T01:21:42.008Z,11.82
2017-10-30T01:24:09.003Z,9.95
2017-10-30T01:26:36.620Z,11.05
2017-10-30T01:29:03.490Z,14.27
2017-10-30T01:31:30.449Z,17.40
2017-10-30T01:33:58.217Z,19.70
2017-10-30T01:36:25.918Z,13.23
2017-10-30T01:38:52.884Z,17.12
2017-10-30T01:41:19.768Z,12.07
2017-10-30T01:43:47.432Z,15.30
2017-10-30T01:46:14.369Z,12.90
2017-10-30T01:48:41.270Z,13.70
2017-10-30T01:51:08.217Z,13.35
2017-10-30T01:53:35.111Z,15.15
2017-10-30T01:56:02.113Z,14.40
2017-10-30T01:58:29.201Z,16.75
2017-10-30T02:00:56.131Z,15.45
2017-10-30T02:03:23.093Z,17.23
2017-10-30T02:05:50.052Z,17.35
2017-10-30T02:08:16.993Z,13.62
2017-10-30T02:10:43.866Z,16.77
2017-10-30T02:13:10.866Z,13.60
2017-10-30T02:15:37.768Z,19.73
2017-10-30T02:18:04.784Z,12.77
2017-10-30T02:20:32.481Z,12.80
2017-10-30T02:22:59.474Z,15.48
2017-10-30T02:25:26.541Z,16.95
2017-10-30T02:27:53.540Z,13.85
2017-10-30T02:30:20.621Z,16.00
2017-10-30T02:32:47.655Z,10.40
2017-10-30T02:35:14.673Z,15.27
2017-10-30T02:37:41.655Z,14.55
2017-10-30T02:40:08.686Z,16.08
2017-10-30T02:42:35.657Z,15.40
2017-10-30T02:45:02.610Z,13.68
2017-10-30T02:47:29.641Z,12.85
2017-10-30T02:49:56.595Z,20.50
2017-10-30T02:52:23.639Z,25.37
2017-10-30T02:54:50.623Z,19.80
2017-10-30T02:57:18.343Z,22.23
2017-10-30T02:59:45.376Z,21.30
2017-10-30T03:02:12.301Z,13.88
2017-10-30T03:04:39.272Z,13.32
2017-10-30T03:07:06.314Z,13.70
2017-10-30T03:09:33.273Z,17.42
2017-10-30T03:12:00.303Z,21.83
2017-10-30T03:14:27.213Z,11.52
2017-10-30T03:16:54.248Z,16.70
2017-10-30T03:19:21.311Z,12.00
2017-10-30T03:21:49.003Z,16.70
2017-10-30T03:24:16.412Z,18.62
2017-10-30T03:26:43.305Z,14.90
2017-10-30T03:29:10.258Z,16.55
2017-10-30T03:31:37.291Z,16.90
2017-10-30T03:34:04.201Z,14.48
2017-10-30T03:36:31.226Z,15.45
2017-10-30T03:38:58.137Z,11.40
2017-10-30T03:41:25.168Z,12.52
2017-10-30T03:43:52.896Z,11.40
2017-10-30T03:46:19.912Z,14.68
2017-10-30T03:48:46.916Z,10.73
2017-10-30T03:51:13.945Z,13.32
2017-10-30T03:53:40.828Z,12.43
2017-10-30T03:56:08.441Z,11.98
2017-10-30T03:58:35.455Z,18.40
2017-10-30T04:01:02.333Z,17.15
2017-10-30T04:03:29.305Z,16.77
2017-10-30T04:08:46.961Z,10.73
2017-10-30T04:11:13.906Z,19.25
2017-10-30T04:13:40.852Z,19.35
2017-10-30T04:16:07.834Z,12.52
2017-10-30T04:18:34.756Z,17.90
2017-10-30T04:21:01.608Z,16.87
2017-10-30T04:23:29.264Z,14.18
2017-10-30T04:25:56.885Z,14.10
2017-10-30T04:28:23.828Z,13.62
2017-10-30T04:30:50.807Z,19.80
2017-10-30T04:33:17.688Z,15.43
2017-10-30T04:35:44.600Z,17.73
2017-10-30T04:38:11.536Z,21.08
2017-10-30T04:40:38.536Z,13.70
2017-10-30T04:43:05.590Z,16.08
2017-10-30T04:45:32.527Z,14.43
2017-10-30T04:47:59.400Z,17.92
2017-10-30T04:50:26.344Z,18.67
2017-10-30T04:52:53.196Z,11.05
2017-10-30T04:55:20.085Z,17.23
2017-10-30T04:57:47.791Z,14.15
2017-10-30T05:00:14.703Z,18.12
2017-10-30T05:02:42.336Z,16.80
2017-10-30T05:05:09.313Z,27.73
2017-10-30T05:07:36.193Z,25.98
2017-10-30T05:10:03.107Z,18.90
2017-10-30T05:12:30.091Z,14.35
2017-10-30T05:14:56.956Z,20.05
2017-10-30T05:17:23.919Z,13.25
2017-10-30T05:19:51.584Z,14.75
2017-10-30T05:22:20.572Z,15.57
2017-10-30T05:24:48.473Z,14.65
2017-10-30T05:27:28.199Z,17.83
2017-10-30T05:29:55.840Z,16.12
2017-10-30T05:32:24.948Z,15.02
2017-10-30T05:34:51.998Z,10.68
2017-10-30T05:37:18.932Z,13.23
2017-10-30T05:39:45.849Z,18.65
2017-10-30T05:42:18.006Z,15.70
2017-10-30T05:44:45.847Z,11.55
2017-10-30T05:47:12.795Z,16.40
2017-10-30T05:49:39.677Z,13.52
2017-10-30T05:52:07.285Z,15.80
2017-10-30T05:54:34.352Z,23.90
2017-10-30T05:57:01.277Z,15.13
2017-10-30T05:59:28.901Z,16.70
2017-10-30T06:01:55.856Z,20.77
2017-10-30T06:04:22.732Z,16.52
2017-10-30T06:06:50.359Z,18.48
2017-10-30T06:09:17.312Z,14.98
2017-10-30T06:11:44.192Z,18.20
2017-10-30T06:14:11.855Z,26.48
2017-10-30T06:16:39.548Z,22.48
2017-10-30T06:19:06.470Z,20.73
2017-10-30T06:21:34.160Z,19.15
2017-10-30T06:24:01.023Z,18.73
2017-10-30T06:26:30.681Z,17.60
2017-10-30T06:28:57.627Z,14.38
2017-10-30T06:31:25.314Z,16.67
2017-10-30T06:33:52.207Z,15.35
2017-10-30T06:36:19.089Z,14.93
2017-10-30T06:38:46.771Z,13.30
2017-10-30T06:41:16.191Z,15.57
2017-10-30T06:43:43.136Z,17.08
2017-10-30T06:46:10.154Z,12.73
2017-10-30T06:48:38.129Z,17.17
2017-10-30T06:51:18.616Z,21.52
2017-10-30T06:54:00.767Z,23.60
2017-10-30T06:56:32.160Z,23.10
2017-10-30T06:58:59.108Z,14.15
2017-10-30T07:01:39.970Z,16.62
2017-10-30T07:04:18.340Z,12.82
2017-10-30T07:06:45.215Z,17.77
2017-10-30T07:09:12.841Z,18.17
2017-10-30T07:11:39.808Z,17.40
2017-10-30T07:14:07.485Z,16.35
2017-10-30T07:16:35.137Z,12.87
2017-10-30T07:19:02.080Z,15.77
2017-10-30T07:21:28.953Z,14.47
2017-10-30T07:23:55.901Z,12.53
2017-10-30T07:26:22.814Z,11.97
2017-10-30T07:28:49.773Z,17.53
2017-10-30T07:31:17.857Z,17.77
2017-10-30T07:33:44.746Z,14.90
2017-10-30T07:36:11.710Z,22.07
2017-10-30T07:38:38.740Z,11.20
2017-10-30T07:41:05.617Z,17.07
2017-10-30T07:43:32.559Z,15.27
2017-10-30T07:45:59.439Z,15.80
2017-10-30T07:48:26.441Z,14.80
2017-10-30T07:50:53.408Z,12.77
2017-10-30T07:53:20.449Z,16.63
2017-10-30T07:55:47.394Z,14.90
2017-10-30T07:58:14.661Z,16.20
2017-10-30T08:00:42.380Z,17.27
2017-10-30T08:03:09.316Z,9.77
2017-10-30T08:05:36.357Z,14.33
2017-10-30T08:08:03.348Z,16.87
2017-10-30T08:10:30.365Z,11.97
2017-10-30T08:12:57.339Z,16.20
2017-10-30T08:15:24.310Z,13.03
2017-10-30T08:17:52.070Z,12.60
2017-10-30T08:20:19.057Z,17.43
2017-10-30T08:22:46.093Z,10.57
2017-10-30T08:25:13.077Z,13.83
2017-10-30T08:27:40.057Z,13.53
2017-10-30T08:30:07.056Z,11.37
2017-10-30T08:32:33.994Z,14.03
2017-10-30T08:35:00.998Z,13.10
2017-10-30T08:37:27.981Z,13.50
2017-10-30T08:39:54.936Z,10.10
2017-10-30T08:42:21.917Z,12.13
2017-10-30T08:44:48.961Z,18.33
2017-10-30T08:47:15.924Z,13.53
2017-10-30T08:49:42.931Z,16.90
2017-10-30T08:52:09.873Z,13.73
2017-10-30T08:54:36.887Z,9.80
2017-10-30T08:57:03.994Z,12.47
2017-10-30T08:59:30.963Z,16.37
2017-10-30T09:01:57.898Z,15.07
2017-10-30T09:04:24.941Z,14.07
2017-10-30T09:06:51.908Z,13.00
2017-10-30T09:09:18.940Z,12.67
2017-10-30T09:11:45.945Z,20.97
2017-10-30T09:14:12.955Z,16.07
2017-10-30T09:16:39.937Z,17.27
2017-10-30T09:19:06.945Z,13.27
2017-10-30T09:21:33.937Z,13.37
2017-10-30T09:24:01.025Z,12.53
2017-10-30T09:26:28.004Z,11.40
2017-10-30T09:28:55.746Z,17.77
2017-10-30T09:31:22.835Z,14.10
2017-10-30T09:33:49.825Z,18.23
2017-10-30T09:36:16.873Z,11.67
2017-10-30T09:38:43.865Z,18.63
2017-10-30T09:41:11.549Z,10.33
2017-10-30T09:43:38.605Z,9.83
2017-10-30T09:46:05.542Z,16.87
2017-10-30T09:48:32.621Z,14.27
2017-10-30T09:50:59.762Z,14.07
2017-10-30T09:53:26.768Z,13.50
2017-10-30T09:55:53.780Z,9.23
2017-10-30T09:58:20.833Z,15.67
2017-10-30T10:00:47.788Z,9.33
2017-10-30T10:03:14.768Z,10.57
2017-10-30T10:05:41.817Z,19.20
2017-10-30T10:08:08.964Z,14.77
2017-10-30T10:10:36.027Z,14.90
2017-10-30T10:13:03.024Z,13.23
2017-10-30T10:15:30.179Z,15.40
2017-10-30T10:17:57.110Z,12.07
2017-10-30T10:20:24.127Z,12.37
2017-10-30T10:22:51.191Z,13.13
2017-10-30T10:25:18.123Z,15.43
2017-10-30T10:27:45.147Z,17.87
2017-10-30T10:30:12.117Z,14.87
2017-10-30T10:32:39.044Z,10.33
2017-10-30T10:35:06.063Z,9.53
2017-10-30T10:37:33.029Z,9.80
2017-10-30T10:40:00.101Z,8.00
2017-10-30T10:42:27.162Z,12.50
2017-10-30T10:44:54.087Z,10.40
2017-10-30T10:47:21.064Z,14.10
2017-10-30T10:49:48.149Z,14.27
2017-10-30T10:52:15.052Z,13.93
2017-10-30T10:54:42.061Z,10.33
2017-10-30T10:57:08.986Z,11.60
2017-10-30T10:59:35.884Z,13.63
2017-10-30T11:02:02.843Z,14.30
2017-10-30T11:04:29.823Z,15.33
2017-10-30T11:06:56.709Z,13.40
2017-10-30T11:09:24.449Z,11.93
2017-10-30T11:11:51.348Z,11.10
2017-10-30T11:14:18.248Z,12.70
2017-10-30T11:16:46.058Z,17.93
2017-10-30T11:19:13.071Z,10.73
2017-10-30T11:21:40.012Z,12.23
2017-10-30T11:24:07.736Z,8.97
2017-10-30T11:26:34.711Z,11.37
2017-10-30T11:29:01.623Z,12.27
2017-10-30T11:31:28.568Z,10.43
2017-10-30T11:33:55.458Z,7.57
2017-10-30T11:36:23.209Z,12.57
2017-10-30T11:38:50.175Z,7.27
2017-10-30T11:41:17.120Z,10.40
2017-10-30T11:43:44.034Z,10.73
2017-10-30T11:46:10.977Z,11.40
2017-10-30T11:48:37.968Z,8.83
2017-10-30T11:51:04.904Z,13.47
2017-10-30T11:53:31.795Z,11.30
2017-10-30T11:55:58.724Z,11.97
2017-10-30T11:58:25.672Z,8.93
2017-10-30T12:00:52.546Z,8.83
2017-10-30T12:03:19.528Z,7.80
2017-10-30T12:05:46.388Z,5.87
2017-10-30T12:08:13.263Z,12.80
2017-10-30T12:10:40.217Z,8.23
2017-10-30T12:13:07.130Z,10.67
2017-10-30T12:18:19.066Z,6.07
2017-10-30T12:20:46.015Z,10.70
2017-10-30T12:23:12.918Z,7.30
2017-10-30T12:25:39.922Z,8.20
2017-10-30T12:28:06.884Z,8.23
2017-10-30T12:30:33.928Z,8.10
2017-10-30T12:33:00.901Z,7.60
2017-10-30T12:35:28.762Z,7.13
2017-10-30T12:37:55.722Z,6.40
2017-10-30T12:40:22.684Z,6.93
2017-10-30T12:42:49.618Z,7.30
2017-10-30T12:45:16.501Z,7.27
2017-10-30T12:47:43.453Z,14.03
2017-10-30T12:50:10.392Z,7.43
2017-10-30T12:52:37.349Z,9.13
2017-10-30T12:55:04.943Z,11.20
2017-10-30T12:57:31.850Z,9.43
2017-10-30T12:59:59.784Z,6.37
2017-10-30T13:02:26.765Z,10.00
2017-10-30T13:04:53.811Z,7.13
2017-10-30T13:07:22.065Z,10.93
2017-10-30T13:09:52.037Z,8.70
2017-10-30T13:12:30.672Z,8.07
2017-10-30T13:14:58.261Z,8.17
2017-10-30T13:17:30.806Z,11.30
2017-10-30T13:19:58.724Z,5.53
2017-10-30T13:22:25.675Z,6.93
2017-10-30T13:24:52.593Z,9.33
2017-10-30T13:27:20.280Z,7.77
2017-10-30T13:29:47.877Z,7.97
2017-10-30T13:32:14.785Z,8.70
2017-10-30T13:34:41.776Z,8.73
2017-10-30T13:37:08.650Z,8.23
2017-10-30T13:39:35.592Z,11.40
2017-10-30T13:42:02.536Z,7.43
2017-10-30T13:44:29.398Z,7.33
2017-10-30T13:46:56.286Z,8.13
2017-10-30T13:49:23.294Z,10.00
2017-10-30T13:51:50.241Z,6.90
2017-10-30T13:54:17.191Z,11.80
2017-10-30T13:56:44.080Z,9.60
2017-10-30T13:59:11.048Z,14.37
2017-10-30T14:01:38.010Z,12.57
2017-10-30T14:04:04.916Z,8.27
2017-10-30T14:06:31.858Z,8.90
2017-10-30T14:08:58.841Z,22.17
2017-10-30T14:11:25.795Z,15.50
2017-10-30T14:13:52.812Z,9.90
2017-10-30T14:16:19.761Z,12.67
2017-10-30T14:18:46.636Z,9.07
2017-10-30T14:21:13.561Z,10.13
2017-10-30T14:23:40.442Z,10.53
2017-10-30T14:26:07.383Z,6.57
2017-10-30T14:28:34.319Z,10.07
2017-10-30T14:31:02.152Z,10.70
2017-10-30T14:33:29.052Z,8.90
2017-10-30T14:35:55.969Z,5.97
2017-10-30T14:38:25.170Z,9.00
2017-10-30T14:40:52.179Z,11.93
2017-10-30T14:43:19.302Z,7.63
2017-10-30T14:45:46.284Z,11.30
2017-10-30T14:48:13.288Z,12.80
2017-10-30T14:50:41.045Z,31.33
2017-10-30T14:53:08.030Z,25.40
2017-10-30T14:55:35.075Z,34.50
2017-10-30T14:58:04.804Z,19.93
2017-10-30T15:00:31.900Z,11.23
2017-10-30T15:02:58.920Z,12.97
2017-10-30T15:05:31.882Z,8.67
2017-10-30T15:07:59.991Z,5.27
2017-10-30T15:10:26.973Z,9.03
2017-10-30T15:12:53.893Z,11.23
2017-10-30T15:15:22.689Z,9.80
2017-10-30T15:17:49.675Z,10.90
2017-10-30T15:20:16.701Z,17.23
2017-10-30T15:22:48.399Z,8.60
2017-10-30T15:25:16.928Z,12.10
2017-10-30T15:27:45.320Z,10.60
2017-10-30T15:30:12.362Z,11.70
2017-10-30T15:32:43.451Z,22.30
2017-10-30T15:35:10.484Z,16.93
2017-10-30T15:37:37.568Z,19.87
2017-10-30T15:40:04.489Z,15.10
2017-10-30T15:42:31.414Z,8.00
2017-10-30T15:44:58.428Z,10.70
2017-10-30T15:47:26.169Z,6.50
2017-10-30T15:49:53.100Z,7.60
2017-10-30T15:52:20.055Z,7.73
2017-10-30T15:54:47.007Z,10.63
2017-10-30T15:57:13.965Z,10.17
2017-10-30T15:59:40.913Z,8.90
2017-10-30T16:02:07.868Z,12.30
2017-10-30T16:04:34.749Z,9.60
2017-10-30T16:07:01.680Z,7.23
2017-10-30T16:09:29.311Z,6.57
2017-10-30T16:11:56.272Z,9.63
2017-10-30T16:14:23.997Z,8.17
2017-10-30T16:16:50.932Z,9.53
2017-10-30T16:19:17.973Z,12.80
2017-10-30T16:21:44.890Z,10.00
2017-10-30T16:24:11.781Z,17.17
2017-10-30T16:26:38.712Z,17.70
2017-10-30T16:29:05.676Z,12.97
2017-10-30T16:31:32.604Z,11.90
2017-10-30T16:33:59.578Z,11.13
2017-10-30T16:36:26.584Z,10.97
2017-10-30T16:38:53.551Z,7.37
2017-10-30T16:41:20.511Z,9.30
2017-10-30T16:43:47.403Z,7.73
2017-10-30T16:46:15.198Z,7.90
2017-10-30T16:48:42.242Z,12.10
2017-10-30T16:51:09.152Z,10.10
2017-10-30T16:53:36.128Z,12.00
2017-10-30T16:56:03.111Z,11.60
2017-10-30T16:58:30.089Z,9.23
2017-10-30T17:01:06.460Z,16.10
2017-10-30T17:03:35.221Z,12.10
2017-10-30T17:06:02.117Z,9.87
2017-10-30T17:08:29.008Z,6.13
2017-10-30T17:10:56.764Z,15.33
2017-10-30T17:13:25.392Z,9.93
2017-10-30T17:15:52.604Z,9.57
2017-10-30T17:18:21.740Z,8.97
2017-10-30T17:20:56.957Z,7.00
2017-10-30T17:23:28.493Z,6.17
2017-10-30T17:25:58.051Z,7.53
2017-10-30T17:28:26.363Z,8.70
2017-10-30T17:30:53.306Z,7.03
2017-10-30T17:33:20.200Z,5.60
2017-10-30T17:35:47.171Z,9.23
2017-10-30T17:38:14.053Z,20.60
2017-10-30T17:40:40.999Z,5.53
2017-10-30T17:43:08.028Z,14.30
2017-10-30T17:45:35.005Z,7.20
2017-10-30T17:48:01.902Z,7.90
2017-10-30T17:50:29.551Z,9.67
2017-10-30T17:52:56.688Z,7.97
2017-10-30T17:55:23.578Z,9.30
2017-10-30T17:57:50.545Z,8.80
2017-10-30T18:00:17.560Z,11.17
2017-10-30T18:02:45.199Z,12.50
2017-10-30T18:05:12.139Z,12.87
2017-10-30T18:07:39.125Z,9.83
2017-10-30T18:10:06.132Z,6.57
2017-10-30T18:12:33.134Z,7.73
2017-10-30T18:15:00.047Z,6.00
2017-10-30T18:17:27.024Z,9.77
2017-10-30T18:19:59.208Z,8.43
2017-10-30T18:22:27.045Z,9.23
2017-10-30T18:24:53.948Z,11.30
2017-10-30T18:27:20.977Z,7.43
2017-10-30T18:29:47.988Z,10.13
2017-10-30T18:32:14.990Z,11.17
2017-10-30T18:34:41.940Z,7.13
2017-10-30T18:37:08.860Z,8.10
2017-10-30T18:39:35.823Z,8.93
2017-10-30T18:42:02.849Z,8.40
2017-10-30T18:44:29.758Z,10.00
2017-10-30T18:46:56.897Z,8.47
2017-10-30T18:49:24.194Z,6.67
2017-10-30T18:51:51.884Z,5.70
2017-10-30T18:54:20.028Z,6.97
2017-10-30T18:56:48.446Z,10.07
2017-10-30T18:59:17.053Z,8.63
2017-10-30T19:01:44.108Z,10.70
2017-10-30T19:04:11.926Z,8.63
2017-10-30T19:06:38.917Z,8.80
2017-10-30T19:09:05.965Z,8.80
2017-10-30T19:11:34.928Z,13.43
2017-10-30T19:14:01.985Z,8.60
2017-10-30T19:16:28.926Z,11.00
2017-10-30T19:18:55.905Z,10.13
2017-10-30T19:21:22.784Z,13.17
2017-10-30T19:23:50.030Z,7.10
2017-10-30T19:26:16.908Z,11.33
2017-10-30T19:28:43.797Z,11.27
2017-10-30T19:31:10.853Z,9.17
2017-10-30T19:33:38.493Z,10.03
2017-10-30T19:36:05.489Z,12.70
2017-10-30T19:38:32.453Z,9.53
2017-10-30T19:40:59.423Z,11.20
2017-10-30T19:43:26.519Z,11.20
2017-10-30T19:45:53.453Z,7.83
2017-10-30T19:48:21.143Z,10.07
2017-10-30T19:50:48.001Z,7.60
2017-10-30T19:53:15.955Z,9.40
2017-10-30T19:55:42.854Z,8.32
2017-10-30T19:58:09.817Z,7.43
2017-10-30T20:00:37.516Z,9.10
2017-10-30T20:03:04.452Z,10.87
2017-10-30T20:05:37.421Z,9.88
2017-10-30T20:08:05.211Z,6.93
2017-10-30T20:10:38.264Z,6.90
2017-10-30T20:13:05.252Z,9.30
2017-10-30T20:15:32.201Z,10.87
2017-10-30T20:17:59.094Z,7.20
2017-10-30T20:20:27.217Z,9.33
2017-10-30T20:22:54.152Z,8.23
2017-10-30T20:25:21.104Z,7.60
2017-10-30T20:27:47.996Z,11.83
2017-10-30T20:30:14.909Z,11.97
2017-10-30T20:32:41.841Z,8.87
2017-10-30T20:35:13.084Z,13.10
2017-10-30T20:37:40.163Z,10.07
2017-10-30T20:40:07.077Z,8.10
2017-10-30T20:42:34.016Z,7.63
2017-10-30T20:45:00.970Z,9.50
2017-10-30T20:47:27.942Z,6.93
2017-10-30T20:49:54.974Z,8.70
2017-10-30T20:52:21.880Z,10.30
2017-10-30T20:54:49.502Z,16.35
2017-10-30T20:57:16.475Z,9.50
2017-10-30T20:59:43.540Z,7.60
2017-10-30T21:02:10.657Z,10.47
2017-10-30T21:04:37.703Z,8.93
2017-10-30T21:07:04.669Z,8.80
2017-10-30T21:09:38.960Z,9.40
2017-10-30T21:12:05.865Z,7.30
2017-10-30T21:14:32.889Z,8.70
2017-10-30T21:16:59.771Z,9.55
2017-10-30T21:19:26.668Z,11.40
2017-10-30T21:21:53.623Z,9.90
2017-10-30T21:24:20.689Z,10.77
2017-10-30T21:26:48.380Z,8.07
2017-10-30T21:29:16.077Z,8.93
2017-10-30T21:31:42.956Z,8.37
2017-10-30T21:34:09.906Z,9.73
2017-10-30T21:36:37.534Z,8.30
2017-10-30T21:39:04.600Z,8.60
2017-10-30T21:41:32.633Z,9.60
2017-10-30T21:43:59.569Z,6.45
2017-10-30T21:46:26.561Z,9.95
2017-10-30T21:48:53.492Z,8.60
2017-10-30T21:51:20.514Z,6.85
2017-10-30T21:53:47.588Z,7.47
2017-10-30T21:56:14.456Z,7.70
2017-10-30T21:58:41.428Z,6.22
2017-10-30T22:01:08.372Z,9.20
2017-10-30T22:03:35.381Z,13.00
2017-10-30T22:06:02.345Z,10.13
2017-10-30T22:08:29.326Z,7.25
2017-10-30T22:10:56.353Z,8.13
2017-10-30T22:13:24.019Z,6.85
2017-10-30T22:15:50.905Z,7.53
2017-10-30T22:18:17.852Z,7.57
2017-10-30T22:20:44.801Z,10.23
2017-10-30T22:23:11.809Z,10.45
2017-10-30T22:25:38.794Z,11.55
2017-10-30T22:28:05.684Z,7.68
2017-10-30T22:30:32.650Z,7.25
2017-10-30T22:33:00.381Z,8.95
2017-10-30T22:35:27.296Z,7.12
2017-10-30T22:37:54.261Z,7.97
2017-10-30T22:40:21.963Z,7.65
2017-10-30T22:42:49.587Z,9.07
2017-10-30T22:45:16.563Z,9.05
2017-10-30T22:47:43.514Z,8.55
2017-10-30T22:50:10.539Z,7.78
2017-10-30T22:52:37.469Z,13.07
2017-10-30T22:55:04.390Z,9.40
2017-10-30T22:57:31.370Z,7.65
2017-10-30T22:59:58.330Z,8.30
2017-10-30T23:02:25.791Z,12.52
2017-10-30T23:04:52.853Z,10.82
2017-10-30T23:07:23.487Z,8.55
2017-10-30T23:09:52.080Z,12.90
2017-10-30T23:12:19.106Z,9.48
2017-10-30T23:14:46.005Z,13.35
2017-10-30T23:17:13.001Z,11.68
2017-10-30T23:19:39.959Z,9.32
2017-10-30T23:22:07.705Z,14.63
2017-10-30T23:24:34.609Z,9.18
2017-10-30T23:27:01.517Z,8.65
2017-10-30T23:29:29.207Z,11.57
2017-10-30T23:31:57.964Z,11.60
2017-10-30T23:34:25.080Z,8.32
2017-10-30T23:36:51.989Z,10.50
2017-10-30T23:39:18.864Z,12.15
2017-10-30T23:41:45.817Z,10.50
2017-10-30T23:44:12.764Z,8.77
2017-10-30T23:46:39.668Z,9.85
2017-10-30T23:49:07.409Z,11.15
2017-10-30T23:51:34.298Z,11.10
2017-10-30T23:54:01.265Z,8.82
2017-10-30T23:56:28.161Z,10.65
2017-10-30T23:58:55.895Z,10.77
